createdAt,value
2022-12-03T00:03:40.601Z,3.213831913670569
2022-12-03T00:10:10.786Z,3.261963053929766
2022-12-03T00:20:45.358Z,3.191901390050167
2022-12-03T00:34:45.147Z,3.0705633361204017
2022-12-03T00:41:11.959Z,3.0872883570234118
2022-12-03T00:47:39.241Z,3.078450303093646
2022-12-03T00:54:05.846Z,3.101941367056856
2022-12-03T01:00:33.081Z,3.067337087165552
2022-12-03T01:07:01.994Z,3.047147392349498
2022-12-03T01:20:36.463Z,3.0023986204013373
2022-12-03T01:31:14.817Z,2.8901677466555182
2022-12-03T01:37:42.889Z,2.9124653793896322
2022-12-03T01:44:12.199Z,2.8583618572324414
2022-12-03T01:54:00.365Z,2.8641043060200664
2022-12-03T02:00:50.241Z,2.7634419418896323
2022-12-03T02:13:17.547Z,2.7949871969063547
2022-12-03T02:34:34.389Z,2.688415159908027
2022-12-03T02:45:30.212Z,2.6708932117474915
2022-12-03T02:51:56.486Z,2.4952680811036787
2022-12-03T03:03:33.718Z,2.4924324571488294
2022-12-03T03:10:00.511Z,2.471311271948161
2022-12-03T03:23:07.117Z,2.244405178720736
2022-12-03T03:33:03.310Z,2.1796038879598663
2022-12-03T03:39:59.195Z,2.1946063701923073
2022-12-03T03:50:00.630Z,2.2573447951505017
2022-12-03T03:58:26.039Z,2.0393205215301005
2022-12-03T04:04:55.379Z,2.0475047031772577
2022-12-03T04:11:24.928Z,2.0093488712374583
2022-12-03T04:19:00.247Z,1.944608329849498
2022-12-03T04:25:28.506Z,1.9100981135033448
2022-12-03T04:31:56.145Z,1.8850961538461541
2022-12-03T04:44:27.714Z,1.7988065687709032
2022-12-03T04:51:59.602Z,1.7186121707775917
2022-12-03T04:58:28.443Z,1.7193235263377922
2022-12-03T05:08:48.389Z,1.5698611256270902
2022-12-03T05:18:29.911Z,1.4743892401755851
2022-12-03T05:29:28.643Z,1.5038775083612042
2022-12-03T05:41:58.206Z,1.4241593070652174
2022-12-03T05:48:26.199Z,1.3970605142140466
2022-12-03T05:54:56.829Z,1.3388364862040134
2022-12-03T06:01:30.087Z,1.3926525919732442
2022-12-03T06:22:42.161Z,1.3623980978260868
2022-12-03T06:29:15.954Z,1.4683123432274248
2022-12-03T06:35:47.964Z,1.3209624529682273
2022-12-03T06:44:21.431Z,1.3876600386705686
2022-12-03T06:57:12.778Z,1.3325538252508362
2022-12-03T07:03:39.915Z,1.284495845526756
2022-12-03T07:10:45.456Z,1.1306836590719065
2022-12-03T07:19:20.587Z,1.2819215091973244
2022-12-03T07:26:04.895Z,1.1372236883361204
2022-12-03T07:32:32.542Z,1.282747831312709
2022-12-03T07:39:00.437Z,1.2635177153010035
2022-12-03T07:45:49.104Z,1.4533294575668898
2022-12-03T07:52:17.696Z,1.4414134354096988
2022-12-03T07:58:46.808Z,1.4721754807692307
2022-12-03T08:07:31.306Z,1.5216195913461539
2022-12-03T08:20:15.351Z,1.4869160221571907
2022-12-03T08:28:08.172Z,1.3963282556438126
2022-12-03T08:34:36.971Z,1.2690883674749163
2022-12-03T08:48:33.088Z,1.402585441053512
2022-12-03T08:58:51.899Z,1.5231624947742475
2022-12-03T09:11:23.815Z,1.379268133361204
2022-12-03T09:22:36.378Z,1.253275893603679
2022-12-03T09:29:11.861Z,1.1888449780518395
2022-12-03T09:41:41.511Z,1.360589987458194
2022-12-03T09:50:27.532Z,1.311268028846154
2022-12-03T10:03:22.045Z,1.3181346676421406
2022-12-03T10:13:54.643Z,1.4480997857441473
2022-12-03T10:20:21.856Z,1.60602333298495
2022-12-03T10:28:55.049Z,1.6057163200250835
2022-12-03T10:40:58.140Z,1.77844377090301
2022-12-03T10:59:44.433Z,2.076554008152174
2022-12-03T11:06:13.756Z,2.089581155936455
2022-12-03T11:12:42.803Z,2.0310070025083613
2022-12-03T11:22:27.444Z,1.9208794941471574
2022-12-03T11:28:54.638Z,2.119381009615385
2022-12-03T11:35:23.087Z,2.0849609375
2022-12-03T11:41:53.969Z,2.105229018603679
2022-12-03T11:49:05.063Z,2.1533079013377927
2022-12-03T11:55:33.970Z,2.0635392715301
2022-12-03T12:03:25.650Z,1.9562663304765888
2022-12-03T12:09:55.335Z,2.109609505643813
2022-12-03T12:16:25.860Z,1.9891069188963209
2022-12-03T12:22:54.246Z,2.1681523045568563
2022-12-03T12:29:22.814Z,2.253330764005017
2022-12-03T12:41:12.447Z,2.180128422867893
2022-12-03T12:53:16.222Z,2.231562238712374
2022-12-03T12:59:45.201Z,2.2408699571488295
2022-12-03T13:06:13.123Z,2.3857043007943144
2022-12-03T13:12:41.380Z,2.3707481971153843
2022-12-03T13:26:58.877Z,2.1191020850752507
2022-12-03T13:44:42.054Z,2.154493493938127
2022-12-03T13:51:13.115Z,2.0455679086538465
2022-12-03T14:00:09.919Z,2.039304844272575
2022-12-03T14:09:08.089Z,2.0725896216555184
2022-12-03T14:15:39.446Z,2.071748275501672
2022-12-03T14:30:15.984Z,2.023477346362876
2022-12-03T14:37:01.933Z,1.9340999947742474
2022-12-03T14:43:48.081Z,1.9790917642140473
2022-12-03T14:50:17.114Z,1.941770746237458
2022-12-03T14:56:47.257Z,1.8622883570234114
2022-12-03T15:06:46.992Z,1.7539382577341134
2022-12-03T15:13:15.289Z,1.6968913304765887
2022-12-03T15:19:43.673Z,1.8185540342809363
2022-12-03T15:28:21.835Z,1.68791087479097
2022-12-03T15:40:39.720Z,1.867080372073579
2022-12-03T15:53:46.698Z,1.8156759510869562
2022-12-03T16:00:12.905Z,1.7175428511705682
2022-12-03T16:09:49.167Z,1.5855246655518394
2022-12-03T16:17:56.490Z,1.5924481344063546
2022-12-03T16:31:40.618Z,1.5418177780100335
2022-12-03T16:39:18.310Z,1.4887607127926423
2022-12-03T16:45:45.576Z,1.480115358486622
2022-12-03T16:53:01.038Z,1.4953654107441472
2022-12-03T16:59:28.557Z,1.4088060461956522
2022-12-03T17:07:15.775Z,1.500374947742475
2022-12-03T17:13:43.305Z,1.4424383361204016
2022-12-03T17:20:11.106Z,1.3576426630434784
2022-12-03T17:26:38.742Z,1.3911599864130435
2022-12-03T17:34:05.148Z,1.453970918687291
2022-12-03T17:43:49.456Z,1.311542380852843
2022-12-03T17:51:00.739Z,1.3910358747909701
2022-12-03T18:02:38.416Z,1.2420562029682274
2022-12-03T18:09:53.879Z,1.252270589464883
2022-12-03T18:18:34.118Z,1.2185971467391306
2022-12-03T18:31:03.766Z,1.2746779630016722
2022-12-03T18:41:36.628Z,1.1029995819397993
2022-12-03T18:58:10.313Z,0.826642845944816
2022-12-03T19:04:41.895Z,0.8941549958193982
2022-12-03T19:11:09.381Z,0.9281596206103679
2022-12-03T19:18:20.918Z,0.9002057640050168
2022-12-03T19:24:48.078Z,0.932631558319398
2022-12-03T19:36:30.450Z,0.828609035326087
2022-12-03T19:42:57.258Z,0.9586512332775919
2022-12-03T19:49:24.553Z,0.8987582305602005
2022-12-03T19:59:39.975Z,0.946172789506689
2022-12-03T20:10:50.626Z,0.8659796979515051
2022-12-03T20:21:19.265Z,0.8478652801003344
2022-12-03T20:32:31.499Z,0.7816380121237457
2022-12-03T20:45:41.177Z,0.8956763430183946
2022-12-03T20:52:09.324Z,0.97178289611204
2022-12-03T21:02:56.437Z,0.7629108747909699
2022-12-03T21:09:26.250Z,0.716141696279264
2022-12-03T21:15:54.804Z,0.7756904525501672
2022-12-03T21:49:26.606Z,0.5170437918060201
2022-12-03T22:00:32.849Z,0.558319397993311
2022-12-03T22:07:00.305Z,0.5122589621655519
2022-12-03T22:19:46.167Z,0.4397921456939799
2022-12-03T22:26:13.509Z,0.438809704222408
2022-12-03T22:32:41.193Z,0.39137816158026756
2022-12-03T22:39:08.320Z,0.4383008465719064
2022-12-03T22:54:51.454Z,0.36108447428929763
2022-12-03T23:01:18.682Z,0.39059821801839467
2022-12-03T23:10:19.647Z,0.4047273463628763
2022-12-03T23:17:45.173Z,0.49045581626254176
2022-12-03T23:29:09.027Z,0.3356422449832776
2022-12-03T23:35:37.333Z,0.2378703752090301
2022-12-03T23:52:23.039Z,0.47736922554347827
2022-12-03T23:58:52.802Z,0.46522392349498326
